Offutt Lake, Washington
Current Conditions -  °F | °C
As of 9:54 AM on Sunday 25 Jan 2015 (Local Time) from KOLM Reporting Station
Broken Clouds Broken Clouds  
Wind Chill: 50°   Ceiling: 400
Heat Index: 50°   Visibility: 10mi
Dew Point: 48°   Wind: 3mph
Humidity: 93%   Direction: 160°SSE
Pressure: 30.17"   Gusts: NA
Location:  46.9755°N, 122.872°W
Report Text: KOLM 251754Z 16003KT 10SM BKN004 10/09 A3017 RMK AO2 SLP217 T01000089 10100 20089 58002
Loading
Personal Weather Stations






























Interactive Weather Map New forecast layout! Learn more

10-Day Weather Forecast

Advertisements
Track Severe Weather on mobile